KRWI/RWI METAR and TAF weather

Enter ICAO airport designator
Station Type Date Time Source
KRWI METAR 2022/11/30 09:53 UTC NOAA

KRWI 300953Z AUTO 00000KT 10SM FEW090 09/07 A3008 RMK AO2 SLP185 T00940072 $


Station Type Date Time Source
KRWI Decoded METAR 2022/11/30 09:53 UTC NOAA

ROCKY MOUNT-WILSON AIRPORT, NC, United States (KRWI) 35-51N 077-54W 47M
Nov 30, 2022 - 04:53 AM EST / 2022.11.30 0953 UTC
Wind: Calm:0
Visibility: 10 mile(s):0
Sky conditions: mostly clear
Temperature: 48.9 F (9.4 C)
Dew Point: 45.0 F (7.2 C)
Relative Humidity: 86%
Pressure (altimeter): 30.08 in. Hg (1018 hPa)
ob: KRWI 300953Z AUTO 00000KT 10SM FEW090 09/07 A3008 RMK AO2 SLP185 T00940072
cycle: 10

Station Type Date Time Source
KRWI TAF 2022/11/30 06:52 UTC NOAA

TAF KRWI 300540Z 3006/0106 VRB03KT P6SM SCT150 BKN200
FM300800 13004KT P6SM SCT060 BKN150
FM301200 18010KT 3SM +SHRA BR SCT015 BKN035 OVC050 WS020/18050KT
TEMPO 3016/3019 19014G25KT 5SM -SHRA BR OVC010
FM301900 23012G25KT 5SM BR VCSH BKN015
FM302300 29010G18KT P6SM SCT015

Example: see airport list